Time;durP1;ratioP1;P1;durP2;ratioP2;P2;SDS_P1;SDS_P2;PMS_P1;PMS_P2;Temp;Humidity;BMP_temperature;BMP_pressure;BME280_temperature;BME280_humidity;BME280_pressure;Samples;Min_cycle;Max_cycle;Signal;HPM_P1;HPM_P2
2021/07/28 00:03:13;;;;;;;6.78;4.53;;;17.20;99.90;;;;;;12595764;28;20059;-85
2021/07/28 00:09:15;;;;;;;8.52;4.35;;;17.50;99.90;;;;;;12579695;28;20053;-85
2021/07/28 00:15:17;;;;;;;6.63;4.65;;;17.70;99.90;;;;;;12574691;28;20098;-83
2021/07/28 00:27:40;;;;;;;6.55;4.25;;;17.30;99.90;;;;;;12579478;28;20056;-84
2021/07/28 00:33:41;;;;;;;9.23;4.78;;;17.10;99.90;;;;;;12573209;28;20040;-84
2021/07/28 00:39:43;;;;;;;9.13;4.47;;;16.70;99.90;;;;;;12571760;28;20554;-84
2021/07/28 00:45:45;;;;;;;8.63;4.15;;;16.80;99.90;;;;;;12572562;28;20057;-83
2021/07/28 00:51:48;;;;;;;11.25;5.25;;;16.80;99.90;;;;;;12566730;28;20068;-83
2021/07/28 00:57:50;;;;;;;8.93;3.90;;;16.70;99.90;;;;;;12570043;28;20048;-84
2021/07/28 01:03:52;;;;;;;8.88;4.07;;;16.70;99.90;;;;;;12571707;28;20040;-84
2021/07/28 01:09:53;;;;;;;7.30;4.35;;;16.60;99.90;;;;;;12582314;28;20147;-85
2021/07/28 01:16:18;;;;;;;8.25;4.25;;;16.50;99.90;;;;;;12578858;28;20135;-84
2021/07/28 01:22:22;;;;;;;7.88;4.43;;;16.50;99.90;;;;;;12574086;28;20098;-83
2021/07/28 01:28:26;;;;;;;10.33;4.53;;;16.50;99.90;;;;;;12566987;28;20119;-84
2021/07/28 01:34:28;;;;;;;6.13;4.13;;;16.60;99.90;;;;;;12576689;28;20044;-85
2021/07/28 01:40:29;;;;;;;8.35;4.45;;;16.60;99.90;;;;;;12577029;28;20052;-85
2021/07/28 01:46:31;;;;;;;8.05;4.50;;;16.50;99.90;;;;;;12572300;28;20099;-84
2021/07/28 01:52:37;;;;;;;6.03;4.30;;;16.50;99.90;;;;;;12567880;28;20053;-84
2021/07/28 01:58:42;;;;;;;7.13;4.20;;;16.50;99.90;;;;;;12586023;28;20126;-84
2021/07/28 02:04:45;;;;;;;7.45;4.18;;;16.30;99.90;;;;;;12577512;28;20073;-86
2021/07/28 02:10:49;;;;;;;8.82;4.40;;;16.20;99.90;;;;;;12578955;28;20068;-84
2021/07/28 02:16:51;;;;;;;;;;;16.30;99.90;;;;;;12577395;28;20056;-85
2021/07/28 02:22:53;;;;;;;8.80;4.47;;;16.20;99.90;;;;;;12579011;28;19921;-85
2021/07/28 02:28:54;;;;;;;6.53;4.45;;;16.20;99.90;;;;;;12582967;28;20080;-84
2021/07/28 02:34:57;;;;;;;8.98;4.70;;;16.80;99.90;;;;;;12573163;28;20049;-85
2021/07/28 02:40:59;;;;;;;8.35;5.05;;;16.30;99.90;;;;;;12587147;28;20090;-86
2021/07/28 02:47:00;;;;;;;8.80;5.05;;;16.30;99.90;;;;;;12583951;28;20056;-84
2021/07/28 02:53:02;;;;;;;9.30;5.15;;;16.50;99.90;;;;;;12587200;28;20071;-84
2021/07/28 02:59:04;;;;;;;7.78;5.20;;;16.00;99.90;;;;;;12579275;28;20084;-83
2021/07/28 03:05:07;;;;;;;7.55;5.25;;;16.30;99.90;;;;;;12561436;28;20073;-84
2021/07/28 03:11:08;;;;;;;7.10;5.20;;;16.10;99.90;;;;;;12583743;28;20056;-85
2021/07/28 03:17:10;;;;;;;7.35;5.05;;;16.00;99.90;;;;;;12593252;28;20052;-84
2021/07/28 03:23:13;;;;;;;8.73;5.07;;;16.10;99.90;;;;;;12589535;28;20505;-83
2021/07/28 03:29:15;;;;;;;8.18;5.10;;;16.00;99.90;;;;;;12579237;28;20044;-84
2021/07/28 03:35:16;;;;;;;11.88;5.18;;;15.90;99.90;;;;;;12587671;28;20064;-84
2021/07/28 03:41:18;;;;;;;8.40;4.97;;;16.10;99.90;;;;;;12568766;28;20060;-83
2021/07/28 03:47:20;;;;;;;7.80;4.90;;;15.80;99.90;;;;;;12576800;28;20049;-84
2021/07/28 03:53:22;;;;;;;9.45;5.13;;;15.90;99.90;;;;;;12574443;28;20060;-84
2021/07/28 03:59:28;;;;;;;8.20;4.75;;;16.20;99.90;;;;;;12581725;28;20057;-83
2021/07/28 04:05:30;;;;;;;9.48;5.00;;;16.10;99.90;;;;;;12580615;28;20049;-84
2021/07/28 04:11:32;;;;;;;7.45;5.50;;;15.90;99.90;;;;;;12569883;28;20041;-83
2021/07/28 04:17:34;;;;;;;8.82;5.78;;;16.00;99.90;;;;;;12591620;28;20048;-83
2021/07/28 04:23:36;;;;;;;7.95;4.82;;;15.90;99.90;;;;;;12583714;28;20053;-83
2021/07/28 04:29:38;;;;;;;9.70;5.35;;;15.70;99.90;;;;;;12575490;28;20078;-84
2021/07/28 04:35:40;;;;;;;10.75;5.38;;;15.80;99.90;;;;;;12573799;28;20041;-83
2021/07/28 04:41:41;;;;;;;7.45;5.15;;;15.90;99.90;;;;;;12566550;28;20052;-85
2021/07/28 04:47:43;;;;;;;7.50;4.90;;;16.40;99.90;;;;;;12580174;28;20044;-85
2021/07/28 04:53:45;;;;;;;7.72;5.15;;;15.90;99.90;;;;;;12586252;28;20082;-84
2021/07/28 04:59:47;;;;;;;11.00;5.20;;;16.00;99.90;;;;;;12577136;28;20136;-84
2021/07/28 05:05:49;;;;;;;8.15;5.50;;;16.10;99.90;;;;;;12547683;28;20111;-85
2021/07/28 05:11:51;;;;;;;7.85;5.30;;;16.20;99.90;;;;;;12567988;28;20138;-84
2021/07/28 05:17:53;;;;;;;8.52;5.13;;;16.20;99.90;;;;;;12568074;28;20103;-83
2021/07/28 05:23:55;;;;;;;8.20;5.13;;;16.30;99.90;;;;;;12560881;28;20053;-84
2021/07/28 05:29:57;;;;;;;8.65;5.05;;;16.40;99.90;;;;;;12577565;28;20118;-83
2021/07/28 05:36:00;;;;;;;8.27;4.93;;;16.40;99.90;;;;;;12576957;28;20076;-84
2021/07/28 05:42:02;;;;;;;8.00;4.90;;;16.80;99.90;;;;;;12587966;28;20068;-84
2021/07/28 05:48:04;;;;;;;7.07;4.93;;;17.00;99.90;;;;;;12585578;28;20484;-84
2021/07/28 05:54:06;;;;;;;8.85;5.20;;;17.00;99.90;;;;;;12585804;28;20488;-85
2021/07/28 06:00:09;;;;;;;9.07;5.63;;;17.10;99.90;;;;;;12560064;28;20385;-84
2021/07/28 06:06:10;;;;;;;10.93;5.30;;;17.30;99.90;;;;;;12571244;28;20178;-84
2021/07/28 06:12:16;;;;;;;9.57;5.55;;;17.60;99.90;;;;;;12573197;28;20083;-84
2021/07/28 06:18:19;;;;;;;7.72;5.32;;;17.50;99.90;;;;;;12564465;28;20535;-85
2021/07/28 06:24:21;;;;;;;8.63;5.55;;;17.70;99.90;;;;;;12591182;28;20029;-85
2021/07/28 06:30:23;;;;;;;10.00;5.60;;;18.10;99.90;;;;;;12573932;28;20055;-84
2021/07/28 06:36:24;;;;;;;10.05;5.60;;;18.10;99.90;;;;;;12558657;28;20150;-84
2021/07/28 06:42:26;;;;;;;10.05;5.90;;;18.10;99.90;;;;;;12570637;28;20193;-84
2021/07/28 06:48:28;;;;;;;7.40;5.00;;;18.00;99.90;;;;;;12576982;28;20076;-84
2021/07/28 06:54:30;;;;;;;9.13;6.03;;;18.50;99.90;;;;;;12574273;28;20095;-84
2021/07/28 07:00:33;;;;;;;11.90;6.13;;;18.30;99.90;;;;;;12564609;28;20052;-84
2021/07/28 07:06:35;;;;;;;8.23;5.72;;;18.40;99.90;;;;;;12557692;28;20061;-83
2021/07/28 07:12:39;;;;;;;8.95;6.10;;;18.50;99.90;;;;;;12559830;28;20135;-82
2021/07/28 07:18:40;;;;;;;8.30;5.80;;;18.90;99.90;;;;;;12562379;28;20179;-84
2021/07/28 07:24:43;;;;;;;8.27;5.18;;;18.70;99.90;;;;;;12565430;28;20132;-84
2021/07/28 07:30:45;;;;;;;8.65;6.57;;;18.80;99.90;;;;;;12551268;28;20072;-84
2021/07/28 07:36:48;;;;;;;7.80;5.82;;;18.90;99.90;;;;;;12570941;28;20567;-83
2021/07/28 07:42:50;;;;;;;11.40;6.50;;;18.90;99.90;;;;;;12553577;28;20049;-86
2021/07/28 07:48:52;;;;;;;7.47;5.85;;;19.00;99.90;;;;;;12569832;28;20069;-84
2021/07/28 07:54:54;;;;;;;9.27;6.38;;;19.10;99.90;;;;;;12561091;28;20140;-85
2021/07/28 08:00:56;;;;;;;8.27;6.10;;;19.20;99.90;;;;;;12571287;28;20136;-83
2021/07/28 08:06:58;;;;;;;9.02;6.18;;;19.80;99.90;;;;;;12561633;28;20061;-83
2021/07/28 08:13:00;;;;;;;10.88;6.45;;;19.80;99.90;;;;;;12552811;28;20106;-84
2021/07/28 08:19:02;;;;;;;8.40;6.15;;;19.60;99.90;;;;;;12563146;28;20041;-84
2021/07/28 08:25:04;;;;;;;9.90;6.65;;;20.00;99.90;;;;;;12590604;28;20064;-85
2021/07/28 08:31:06;;;;;;;8.00;6.82;;;20.30;99.90;;;;;;12583484;28;20066;-84
2021/07/28 08:37:08;;;;;;;10.88;6.68;;;20.10;99.90;;;;;;12565693;28;20130;-85
2021/07/28 08:43:10;;;;;;;14.45;8.35;;;20.40;99.90;;;;;;12551426;28;20072;-85
2021/07/28 08:49:12;;;;;;;8.98;5.85;;;20.10;99.90;;;;;;12558716;28;20108;-84
2021/07/28 08:55:15;;;;;;;9.32;5.03;;;20.20;99.90;;;;;;12552358;28;20053;-84
2021/07/28 09:01:17;;;;;;;9.77;6.13;;;19.90;99.90;;;;;;12555447;28;20089;-85
2021/07/28 09:07:21;;;;;;;8.48;5.13;;;19.90;99.90;;;;;;12561184;28;20057;-84
2021/07/28 09:13:27;;;;;;;7.95;4.85;;;20.40;99.90;;;;;;12556781;28;20796;-83
2021/07/28 09:19:43;;;;;;;7.65;4.57;;;20.70;99.90;;;;;;12558317;28;20107;-84
2021/07/28 09:25:58;;;;;;;6.13;4.25;;;20.70;99.90;;;;;;12566946;28;20325;-85
2021/07/28 09:32:03;;;;;;;6.30;4.78;;;20.60;99.90;;;;;;12573046;28;20041;-84
2021/07/28 09:38:05;;;;;;;9.80;4.97;;;21.20;99.90;;;;;;12571338;28;20086;-85
2021/07/28 09:44:07;;;;;;;7.10;4.80;;;21.30;99.90;;;;;;12592051;28;20041;-84
2021/07/28 09:50:09;;;;;;;5.88;4.88;;;20.80;99.90;;;;;;12563074;28;20103;-85
2021/07/28 09:56:28;;;;;;;7.00;5.00;;;20.60;99.90;;;;;;12550564;28;20046;-84
2021/07/28 10:02:33;;;;;;;7.57;4.68;;;20.20;99.90;;;;;;12566609;28;20053;-84
2021/07/28 10:08:36;;;;;;;6.35;4.65;;;20.50;99.90;;;;;;12566730;28;20061;-84
2021/07/28 10:14:42;;;;;;;5.78;4.10;;;20.90;99.90;;;;;;12583132;28;20037;-85
2021/07/28 10:20:44;;;;;;;7.28;4.10;;;21.40;99.90;;;;;;12592654;28;20048;-84
2021/07/28 10:26:51;;;;;;;6.35;4.07;;;21.90;99.90;;;;;;12574671;28;20512;-83
2021/07/28 10:33:19;;;;;;;6.97;3.78;;;21.60;99.90;;;;;;12574310;28;20108;-83
2021/07/28 10:39:40;;;;;;;4.43;3.50;;;21.10;99.90;;;;;;12571394;28;20064;-85
2021/07/28 10:45:56;;;;;;;7.97;3.83;;;21.40;99.90;;;;;;12582953;28;20721;-85
2021/07/28 10:51:58;;;;;;;;;;;21.50;99.90;;;;;;12569848;28;20037;-84
2021/07/28 10:58:06;;;;;;;6.97;4.00;;;21.70;99.90;;;;;;12576227;28;19935;-85
2021/07/28 11:04:24;;;;;;;8.13;3.75;;;21.60;99.90;;;;;;12580035;28;20067;-84
2021/07/28 11:10:26;;;;;;;3.50;0.80;;;20.80;99.90;;;;;;12536231;28;20048;-87
2021/07/28 11:16:29;;;;;;;4.72;1.00;;;19.50;99.90;;;;;;12559733;28;20063;-85
2021/07/28 11:22:31;;;;;;;2.33;1.00;;;18.20;99.90;;;;;;12538886;28;20060;-86
2021/07/28 11:28:33;;;;;;;3.53;1.50;;;17.50;99.90;;;;;;12549644;28;20060;-86
2021/07/28 11:34:55;;;;;;;3.60;2.15;;;17.80;99.90;;;;;;12549616;28;20041;-86
2021/07/28 11:40:58;;;;;;;3.13;2.38;;;18.30;99.90;;;;;;12558959;28;20124;-86
2021/07/28 11:47:00;;;;;;;7.47;3.90;;;18.80;99.90;;;;;;12562677;28;20067;-85
2021/07/28 11:53:02;;;;;;;6.00;3.97;;;18.60;99.90;;;;;;12567152;28;20052;-85
2021/07/28 11:59:04;;;;;;;8.30;4.25;;;18.70;99.90;;;;;;12590551;28;20070;-86
2021/07/28 12:05:07;;;;;;;6.22;4.80;;;19.50;99.90;;;;;;12592405;28;20062;-86
2021/07/28 12:11:12;;;;;;;6.57;4.60;;;19.40;99.90;;;;;;12584380;28;20045;-85
2021/07/28 12:17:17;;;;;;;6.00;4.63;;;19.90;99.90;;;;;;12563798;28;20049;-85
2021/07/28 12:23:22;;;;;;;6.38;4.05;;;20.10;99.90;;;;;;12568625;28;20140;-84
2021/07/28 12:29:37;;;;;;;7.55;4.25;;;21.30;99.90;;;;;;12571432;28;20299;-84
2021/07/28 12:35:47;;;;;;;5.95;4.30;;;21.20;99.90;;;;;;12576796;28;20048;-85
2021/07/28 12:41:58;;;;;;;6.55;3.60;;;21.60;99.90;;;;;;12576703;28;20051;-85
2021/07/28 12:48:00;;;;;;;6.73;3.70;;;21.70;99.90;;;;;;12574142;28;20053;-86
2021/07/28 12:54:02;;;;;;;4.87;3.53;;;22.40;99.90;;;;;;12583568;28;20041;-85
2021/07/28 13:00:06;;;;;;;6.80;3.90;;;22.30;99.90;;;;;;12571210;28;20040;-84
2021/07/28 13:06:09;;;;;;;5.18;4.07;;;21.80;99.90;;;;;;12570230;28;20052;-85
2021/07/28 13:12:12;;;;;;;8.18;3.90;;;21.30;99.90;;;;;;12575776;28;20088;-83
2021/07/28 13:18:15;;;;;;;6.03;4.15;;;21.40;99.90;;;;;;12568460;28;20627;-84
2021/07/28 13:24:18;;;;;;;7.27;4.53;;;21.90;99.90;;;;;;12564743;28;20106;-85
2021/07/28 13:30:20;;;;;;;6.80;4.10;;;22.50;99.90;;;;;;12566302;28;20292;-83
2021/07/28 13:36:22;;;;;;;7.70;4.47;;;23.00;99.90;;;;;;12563456;28;20125;-84
2021/07/28 13:42:24;;;;;;;6.45;3.50;;;23.10;99.90;;;;;;12557135;28;20036;-86
2021/07/28 13:48:27;;;;;;;8.23;4.30;;;23.10;99.90;;;;;;12563455;28;20053;-85
2021/07/28 13:54:30;;;;;;;6.40;3.45;;;22.40;99.90;;;;;;12592004;28;20130;-84
2021/07/28 14:00:32;;;;;;;6.53;3.20;;;23.10;99.90;;;;;;12579145;28;20048;-84
2021/07/28 14:06:34;;;;;;;5.55;2.85;;;23.50;99.90;;;;;;12584065;28;20397;-84
2021/07/28 14:12:39;;;;;;;4.75;2.90;;;24.40;99.90;;;;;;12574120;28;20045;-85
2021/07/28 14:18:41;;;;;;;5.32;2.47;;;24.30;99.90;;;;;;12576183;28;20072;-84
2021/07/28 14:24:43;;;;;;;3.75;2.47;;;24.10;99.90;;;;;;12575271;28;20045;-84
2021/07/28 14:30:45;;;;;;;4.47;2.55;;;23.20;99.90;;;;;;12575003;28;20049;-84
2021/07/28 14:36:47;;;;;;;5.45;2.83;;;22.50;99.90;;;;;;12577283;28;20059;-84
2021/07/28 14:42:49;;;;;;;6.72;2.42;;;22.30;99.90;;;;;;12572512;28;20090;-84
2021/07/28 14:48:53;;;;;;;5.00;2.70;;;23.00;99.90;;;;;;12565845;28;20457;-84
2021/07/28 14:54:58;;;;;;;4.95;2.67;;;22.30;99.90;;;;;;12588882;28;20044;-85
2021/07/28 15:01:00;;;;;;;5.75;2.22;;;22.10;99.90;;;;;;12596793;28;20045;-85
2021/07/28 15:07:02;;;;;;;3.58;2.17;;;22.30;99.90;;;;;;12585824;28;20049;-84
2021/07/28 15:13:04;;;;;;;2.90;1.88;;;23.30;99.90;;;;;;12560868;28;20044;-84
2021/07/28 15:19:16;;;;;;;4.57;2.03;;;23.00;99.90;;;;;;12579874;28;20060;-84
2021/07/28 15:25:18;;;;;;;4.18;2.10;;;23.20;99.90;;;;;;12546022;28;20456;-85
2021/07/28 15:31:23;;;;;;;3.90;2.00;;;22.90;99.90;;;;;;12562532;28;20048;-86
2021/07/28 15:37:25;;;;;;;4.30;2.15;;;23.60;99.90;;;;;;12574624;28;20121;-84
2021/07/28 15:43:27;;;;;;;4.78;2.35;;;23.10;99.90;;;;;;12577412;28;20057;-86
2021/07/28 15:49:29;;;;;;;5.32;1.90;;;22.80;99.90;;;;;;12582684;28;20041;-85
2021/07/28 15:55:31;;;;;;;4.18;2.15;;;23.00;99.90;;;;;;12560767;28;20068;-86
2021/07/28 16:01:33;;;;;;;6.00;2.22;;;23.00;99.90;;;;;;12573972;28;20060;-85
2021/07/28 16:07:35;;;;;;;3.90;1.70;;;22.60;99.90;;;;;;12593469;28;20095;-85
2021/07/28 16:13:51;;;;;;;4.18;1.83;;;23.30;99.90;;;;;;12571918;28;20040;-86
2021/07/28 16:20:05;;;;;;;5.97;2.10;;;23.60;99.90;;;;;;12566772;28;20510;-85
2021/07/28 16:26:07;;;;;;;5.07;1.95;;;23.60;99.90;;;;;;12577547;28;20397;-85
2021/07/28 16:32:09;;;;;;;2.92;1.40;;;23.20;99.90;;;;;;12569939;28;20075;-83
2021/07/28 16:38:11;;;;;;;4.90;1.75;;;23.20;99.90;;;;;;12574641;28;20049;-85
2021/07/28 16:44:15;;;;;;;4.05;1.67;;;23.50;99.90;;;;;;12554610;28;20040;-85
2021/07/28 16:50:18;;;;;;;2.92;1.52;;;22.90;99.90;;;;;;12553766;28;20040;-84
2021/07/28 16:56:20;;;;;;;2.90;1.90;;;22.50;99.90;;;;;;12580041;28;20104;-86
2021/07/28 17:02:23;;;;;;;5.03;1.80;;;22.60;99.90;;;;;;12560541;28;20051;-85
2021/07/28 17:08:25;;;;;;;4.38;1.50;;;22.40;99.90;;;;;;12558164;28;20728;-85
2021/07/28 17:14:26;;;;;;;4.78;1.65;;;22.70;99.90;;;;;;12553503;28;20080;-86
2021/07/28 17:20:28;;;;;;;4.75;1.48;;;22.60;99.90;;;;;;12564901;28;20171;-85
2021/07/28 17:26:30;;;;;;;2.30;1.20;;;22.80;99.90;;;;;;12579831;28;20076;-85
2021/07/28 17:32:32;;;;;;;3.13;1.38;;;22.80;99.90;;;;;;12564717;28;20377;-86
2021/07/28 17:38:36;;;;;;;3.58;1.27;;;22.30;99.90;;;;;;12540824;28;20144;-86
2021/07/28 17:44:39;;;;;;;5.20;1.50;;;22.20;99.90;;;;;;12575099;28;20053;-85
2021/07/28 17:50:42;;;;;;;4.05;1.40;;;22.00;99.90;;;;;;12574989;28;20052;-85
2021/07/28 17:56:44;;;;;;;2.10;1.15;;;22.00;99.90;;;;;;12572939;28;20079;-87
2021/07/28 18:02:45;;;;;;;4.18;1.40;;;22.30;99.90;;;;;;12580502;28;20056;-86
2021/07/28 18:08:47;;;;;;;2.58;1.30;;;22.40;99.90;;;;;;12575834;28;20143;-86
2021/07/28 18:14:49;;;;;;;3.20;1.30;;;21.70;99.90;;;;;;12563861;28;20648;-85
2021/07/28 18:20:51;;;;;;;2.78;1.30;;;21.50;99.90;;;;;;12581306;28;20068;-85
2021/07/28 18:26:53;;;;;;;2.95;1.33;;;21.20;99.90;;;;;;12576575;28;20049;-85
2021/07/28 18:32:58;;;;;;;5.25;1.38;;;21.10;99.90;;;;;;12575384;28;20040;-85
2021/07/28 18:39:00;;;;;;;4.05;1.15;;;20.90;99.90;;;;;;12569875;28;20048;-85
2021/07/28 18:45:03;;;;;;;3.83;1.50;;;21.00;99.90;;;;;;12566572;28;20072;-84
2021/07/28 18:51:05;;;;;;;3.75;1.40;;;21.00;99.90;;;;;;12587113;28;20045;-86
2021/07/28 18:57:07;;;;;;;4.82;1.48;;;21.00;99.90;;;;;;12586131;28;20426;-85
2021/07/28 19:03:11;;;;;;;5.82;1.60;;;20.80;99.90;;;;;;12586017;28;20037;-86
2021/07/28 19:09:13;;;;;;;3.92;1.63;;;20.80;99.90;;;;;;12579847;28;20037;-86
2021/07/28 19:15:20;;;;;;;3.35;1.35;;;20.70;99.90;;;;;;12605435;28;20025;-86
2021/07/28 19:21:21;;;;;;;8.93;1.60;;;20.70;99.90;;;;;;12579241;28;20115;-86
2021/07/28 19:27:23;;;;;;;4.95;1.52;;;20.60;99.90;;;;;;12588920;28;20052;-85
2021/07/28 19:33:26;;;;;;;6.38;1.58;;;20.30;99.90;;;;;;12592473;28;20041;-86
2021/07/28 19:39:28;;;;;;;4.00;1.80;;;20.20;99.90;;;;;;12600151;28;20795;-85
2021/07/28 19:45:30;;;;;;;5.07;1.60;;;20.00;99.90;;;;;;12608776;28;20053;-86
2021/07/28 19:51:32;;;;;;;5.70;1.77;;;19.80;99.90;;;;;;12588393;28;20049;-85
2021/07/28 19:57:34;;;;;;;4.93;1.70;;;19.70;99.90;;;;;;12597157;28;20048;-86
2021/07/28 20:03:36;;;;;;;7.22;1.85;;;19.60;99.90;;;;;;12588670;28;20041;-85
2021/07/28 20:09:38;;;;;;;2.97;1.65;;;19.50;99.90;;;;;;12585276;28;20428;-86
2021/07/28 20:15:40;;;;;;;5.55;1.73;;;19.30;99.90;;;;;;12590634;28;20053;-86
2021/07/28 20:21:42;;;;;;;4.20;1.80;;;19.30;99.90;;;;;;12579431;28;20048;-85
2021/07/28 20:27:45;;;;;;;7.45;1.90;;;19.20;99.90;;;;;;12594150;28;20056;-86
2021/07/28 20:33:48;;;;;;;6.35;2.03;;;19.30;99.90;;;;;;12596404;28;20049;-85
2021/07/28 20:39:50;;;;;;;5.45;1.80;;;19.20;99.90;;;;;;12566437;28;20052;-86
2021/07/28 20:45:52;;;;;;;5.25;2.05;;;19.00;99.90;;;;;;12575687;28;20045;-85
2021/07/28 20:51:54;;;;;;;4.53;1.77;;;18.90;99.90;;;;;;12581411;28;20053;-86
2021/07/28 20:57:56;;;;;;;4.72;1.83;;;18.90;99.90;;;;;;12576683;28;20048;-85
2021/07/28 21:04:01;;;;;;;6.85;1.92;;;18.90;99.90;;;;;;12577495;28;20051;-85
2021/07/28 21:10:04;;;;;;;5.32;2.03;;;18.90;99.90;;;;;;12555434;28;20071;-86
2021/07/28 21:16:06;;;;;;;8.32;2.40;;;18.80;99.90;;;;;;12558691;28;20059;-84
2021/07/28 21:22:08;;;;;;;5.65;2.50;;;19.00;99.90;;;;;;12560074;28;20063;-84
2021/07/28 21:28:10;;;;;;;6.25;3.60;;;17.70;99.90;;;;;;12556222;28;20111;-86
2021/07/28 21:34:12;;;;;;;6.03;3.00;;;17.20;99.90;;;;;;12560968;28;20060;-83
2021/07/28 21:40:14;;;;;;;7.65;3.00;;;16.90;99.90;;;;;;12554692;28;20171;-82
2021/07/28 21:46:16;;;;;;;6.35;2.80;;;16.80;99.90;;;;;;12564171;28;20098;-83
2021/07/28 21:53:04;;;;;;;6.75;2.75;;;16.80;99.90;;;;;;12563113;28;20071;-84
2021/07/28 21:59:27;;;;;;;6.00;3.05;;;16.70;99.90;;;;;;12541766;28;20161;-83
2021/07/28 22:05:29;;;;;;;5.57;3.20;;;16.70;99.90;;;;;;12574233;28;20112;-84
2021/07/28 22:11:31;;;;;;;6.15;3.08;;;16.80;99.90;;;;;;12561375;28;20099;-84
2021/07/28 22:17:33;;;;;;;7.10;3.42;;;16.70;99.90;;;;;;12571460;28;20056;-84
2021/07/28 22:23:36;;;;;;;8.05;3.15;;;16.70;99.90;;;;;;12553028;28;20060;-84
2021/07/28 22:29:38;;;;;;;6.78;3.20;;;16.60;99.90;;;;;;12546327;28;20132;-84
2021/07/28 22:35:42;;;;;;;5.55;3.15;;;16.50;99.90;;;;;;12590156;28;20045;-83
2021/07/28 22:41:43;;;;;;;5.90;3.67;;;16.60;99.90;;;;;;12560506;28;20097;-84
2021/07/28 22:47:50;;;;;;;8.63;3.60;;;16.60;99.90;;;;;;12557224;28;20045;-83
2021/07/28 22:53:52;;;;;;;7.35;3.60;;;16.70;99.90;;;;;;12554969;28;20116;-83
2021/07/28 23:12:29;;;;;;;5.88;3.28;;;16.70;99.90;;;;;;12564232;28;20057;-85
2021/07/28 23:18:32;;;;;;;7.50;3.17;;;16.60;99.90;;;;;;12565206;28;20048;-84
2021/07/28 23:24:35;;;;;;;6.57;2.83;;;16.60;99.90;;;;;;12564623;28;20045;-84
2021/07/28 23:30:37;;;;;;;4.25;2.88;;;16.70;99.90;;;;;;12560428;28;20052;-85
2021/07/28 23:36:40;;;;;;;4.60;3.00;;;16.70;99.90;;;;;;12553967;28;20048;-84
2021/07/28 23:42:42;;;;;;;7.20;2.80;;;16.80;99.90;;;;;;12574779;28;20063;-84
2021/07/28 23:48:44;;;;;;;6.55;2.80;;;16.80;99.90;;;;;;12569239;28;20056;-84
2021/07/28 23:54:46;;;;;;;6.13;2.90;;;16.90;99.90;;;;;;12572746;28;20045;-84
